createdAt,value
2018-07-26T00:00:20.651Z,12.17
2018-07-26T00:02:48.910Z,11.67
2018-07-26T00:05:17.421Z,12.90
2018-07-26T00:07:45.670Z,11.23
2018-07-26T00:10:13.888Z,11.50
2018-07-26T00:12:42.305Z,11.20
2018-07-26T00:15:10.553Z,12.20
2018-07-26T00:17:38.829Z,11.20
2018-07-26T00:20:07.540Z,10.60
2018-07-26T00:22:35.752Z,12.10
2018-07-26T00:25:04.027Z,12.50
2018-07-26T00:27:32.540Z,11.60
2018-07-26T00:30:00.757Z,11.77
2018-07-26T00:32:28.962Z,10.13
2018-07-26T00:34:57.213Z,10.80
2018-07-26T00:37:25.490Z,10.60
2018-07-26T00:39:53.713Z,10.80
2018-07-26T00:42:21.668Z,10.17
2018-07-26T00:44:49.954Z,11.13
2018-07-26T00:47:18.177Z,11.07
2018-07-26T00:49:46.673Z,10.47
2018-07-26T00:52:14.892Z,9.87
2018-07-26T00:54:43.139Z,10.10
2018-07-26T00:57:11.396Z,10.20
2018-07-26T00:59:39.615Z,11.20
2018-07-26T01:02:07.823Z,10.63
2018-07-26T01:04:36.034Z,10.53
2018-07-26T01:07:04.285Z,9.80
2018-07-26T01:09:32.506Z,9.70
2018-07-26T01:12:00.889Z,10.90
2018-07-26T01:14:29.123Z,9.83
2018-07-26T01:16:57.384Z,9.70
2018-07-26T01:19:25.589Z,10.47
2018-07-26T01:21:53.826Z,10.20
2018-07-26T01:24:22.046Z,11.63
2018-07-26T01:26:50.497Z,10.43
2018-07-26T01:29:20.242Z,10.67
2018-07-26T01:31:51.675Z,10.87
2018-07-26T01:34:20.188Z,9.00
2018-07-26T01:36:48.409Z,9.53
2018-07-26T01:39:16.637Z,9.97
2018-07-26T01:41:44.866Z,9.00
2018-07-26T01:44:18.419Z,9.33
2018-07-26T01:46:46.654Z,9.40
2018-07-26T01:49:14.872Z,9.10
2018-07-26T01:51:43.214Z,9.17
2018-07-26T01:54:11.429Z,10.10
2018-07-26T01:56:39.655Z,9.60
2018-07-26T01:59:07.904Z,9.50
2018-07-26T02:01:36.103Z,9.40
2018-07-26T02:04:04.331Z,9.30
2018-07-26T02:06:32.535Z,9.47
2018-07-26T02:09:00.756Z,8.93
2018-07-26T02:11:28.994Z,9.70
2018-07-26T02:13:57.213Z,10.60
2018-07-26T02:16:25.462Z,9.80
2018-07-26T02:18:53.877Z,10.30
2018-07-26T02:21:22.205Z,9.37
2018-07-26T02:23:50.404Z,8.83
2018-07-26T02:26:18.653Z,10.07
2018-07-26T02:28:46.841Z,8.60
2018-07-26T02:31:15.050Z,10.20
2018-07-26T02:33:43.249Z,9.53
2018-07-26T02:36:11.454Z,9.33
2018-07-26T02:38:39.662Z,10.10
2018-07-26T02:41:08.313Z,10.00
2018-07-26T02:43:36.486Z,9.23
2018-07-26T02:46:04.726Z,10.70
2018-07-26T02:48:32.685Z,11.27
2018-07-26T02:57:44.915Z,10.40
2018-07-26T03:00:13.286Z,10.57
2018-07-26T03:02:41.541Z,9.97
2018-07-26T03:05:10.202Z,10.53
2018-07-26T03:07:38.429Z,11.17
2018-07-26T03:10:06.918Z,9.57
2018-07-26T03:12:35.146Z,10.87
2018-07-26T03:15:03.378Z,10.90
2018-07-26T03:17:31.650Z,10.10
2018-07-26T03:19:59.890Z,11.03
2018-07-26T03:22:28.621Z,10.60
2018-07-26T03:24:56.588Z,11.50
2018-07-26T03:27:24.933Z,10.70
2018-07-26T03:29:53.135Z,10.30
2018-07-26T03:32:21.376Z,9.63
2018-07-26T03:34:49.627Z,9.33
2018-07-26T03:37:17.838Z,10.30
2018-07-26T03:39:46.081Z,10.60
2018-07-26T03:42:14.301Z,13.00
2018-07-26T03:44:42.569Z,10.47
2018-07-26T03:47:10.930Z,10.33
2018-07-26T03:49:39.142Z,11.33
2018-07-26T03:52:07.377Z,9.93
2018-07-26T03:54:35.632Z,9.57
2018-07-26T03:57:03.842Z,10.37
2018-07-26T03:59:32.074Z,12.27
2018-07-26T04:02:00.276Z,10.03
2018-07-26T04:04:28.493Z,11.00
2018-07-26T04:06:56.759Z,10.40
2018-07-26T04:09:25.026Z,10.30
2018-07-26T04:11:53.270Z,10.77
2018-07-26T04:14:21.529Z,11.10
2018-07-26T04:16:49.757Z,11.17
2018-07-26T04:19:17.992Z,9.60
2018-07-26T04:21:46.211Z,8.53
2018-07-26T04:24:14.430Z,8.50
2018-07-26T04:26:42.673Z,9.20
2018-07-26T04:29:10.921Z,9.37
2018-07-26T04:31:39.128Z,9.03
2018-07-26T04:34:07.348Z,8.60
2018-07-26T04:36:35.570Z,10.20
2018-07-26T04:39:05.843Z,8.70
2018-07-26T04:41:34.084Z,8.40
2018-07-26T04:44:02.341Z,9.60
2018-07-26T04:46:30.575Z,7.47
2018-07-26T04:48:58.866Z,8.23
2018-07-26T04:51:27.009Z,8.40
2018-07-26T04:53:55.282Z,7.50
2018-07-26T04:56:23.531Z,8.20
2018-07-26T04:58:51.742Z,8.70
2018-07-26T05:01:20.002Z,9.30
2018-07-26T05:03:48.255Z,7.63
2018-07-26T05:06:16.546Z,7.83
2018-07-26T05:08:44.500Z,7.43
2018-07-26T05:11:12.737Z,8.33
2018-07-26T05:13:41.139Z,8.20
2018-07-26T05:16:09.402Z,8.57
2018-07-26T05:18:37.630Z,7.67
2018-07-26T05:21:05.867Z,8.10
2018-07-26T05:23:34.078Z,8.97
2018-07-26T05:26:02.288Z,7.90
2018-07-26T05:28:30.557Z,7.80
2018-07-26T05:30:58.747Z,7.20
2018-07-26T05:33:27.022Z,6.87
2018-07-26T05:35:55.298Z,8.50
2018-07-26T05:38:23.530Z,10.30
2018-07-26T05:40:51.781Z,7.53
2018-07-26T05:43:20.077Z,7.37
2018-07-26T05:45:48.293Z,8.33
2018-07-26T05:48:16.513Z,8.07
2018-07-26T05:50:44.725Z,8.23
2018-07-26T05:53:12.949Z,9.07
2018-07-26T05:55:41.168Z,8.47
2018-07-26T05:58:09.503Z,19.53
2018-07-26T06:00:37.769Z,13.23
2018-07-26T06:03:06.137Z,10.30
2018-07-26T06:05:34.335Z,9.50
2018-07-26T06:08:02.549Z,9.50
2018-07-26T06:10:30.734Z,8.50
2018-07-26T06:12:58.945Z,8.03
2018-07-26T06:15:27.121Z,7.03
2018-07-26T06:17:55.337Z,6.80
2018-07-26T06:20:23.656Z,9.77
2018-07-26T06:22:51.925Z,8.13
2018-07-26T06:25:20.162Z,8.60
2018-07-26T06:27:48.498Z,8.40
2018-07-26T06:30:16.681Z,8.17
2018-07-26T06:32:44.905Z,7.20
2018-07-26T06:35:13.137Z,9.60
2018-07-26T06:37:42.354Z,9.27
2018-07-26T06:40:10.305Z,9.97
2018-07-26T06:42:38.731Z,9.20
2018-07-26T06:45:07.918Z,8.53
2018-07-26T06:47:36.193Z,9.07
2018-07-26T06:50:06.293Z,7.73
2018-07-26T06:52:34.637Z,7.13
2018-07-26T06:55:02.966Z,8.97
2018-07-26T06:57:31.210Z,8.27
2018-07-26T06:59:59.483Z,8.90
2018-07-26T07:02:27.794Z,9.20
2018-07-26T07:04:56.074Z,10.63
2018-07-26T07:07:24.030Z,7.80
2018-07-26T07:09:52.302Z,9.27
2018-07-26T07:12:20.563Z,7.93
2018-07-26T07:14:48.849Z,10.80
2018-07-26T07:17:17.130Z,9.30
2018-07-26T07:19:45.424Z,10.27
2018-07-26T07:22:13.622Z,9.70
2018-07-26T07:24:42.094Z,8.80
2018-07-26T07:27:10.345Z,8.77
2018-07-26T07:29:38.827Z,8.83
2018-07-26T07:32:07.192Z,10.03
2018-07-26T07:34:35.521Z,8.63
2018-07-26T07:37:03.778Z,8.87
2018-07-26T07:39:31.773Z,8.60
2018-07-26T07:42:00.043Z,8.03
2018-07-26T07:44:28.345Z,8.40
2018-07-26T07:46:56.802Z,8.20
2018-07-26T07:49:25.105Z,10.70
2018-07-26T07:51:53.314Z,8.60
2018-07-26T07:54:21.590Z,8.90
2018-07-26T07:56:49.834Z,10.00
2018-07-26T07:59:18.083Z,8.17
2018-07-26T08:01:46.351Z,8.23
2018-07-26T08:04:14.610Z,7.70
2018-07-26T08:06:42.898Z,7.20
2018-07-26T08:09:12.072Z,10.23
2018-07-26T08:11:40.182Z,7.80
2018-07-26T08:14:09.117Z,6.70
2018-07-26T08:16:37.549Z,6.30
2018-07-26T08:19:05.906Z,6.83
2018-07-26T08:21:33.916Z,7.10
2018-07-26T08:24:02.282Z,6.30
2018-07-26T08:26:30.648Z,6.70
2018-07-26T08:28:58.933Z,7.00
2018-07-26T08:31:27.336Z,8.13
2018-07-26T08:33:55.615Z,7.90
2018-07-26T08:36:23.889Z,6.50
2018-07-26T08:38:52.160Z,6.93
2018-07-26T08:41:20.515Z,7.20
2018-07-26T08:43:48.750Z,6.70
2018-07-26T08:46:16.706Z,7.87
2018-07-26T08:48:45.153Z,7.40
2018-07-26T08:51:13.451Z,7.53
2018-07-26T08:53:41.783Z,7.27
2018-07-26T08:56:10.028Z,7.30
2018-07-26T08:58:38.314Z,7.77
2018-07-26T09:01:06.599Z,7.77
2018-07-26T09:03:34.901Z,7.83
2018-07-26T09:06:03.207Z,8.33
2018-07-26T09:08:31.513Z,7.77
2018-07-26T09:10:59.747Z,7.87
2018-07-26T09:13:28.106Z,6.93
2018-07-26T09:15:56.244Z,11.23
2018-07-26T09:18:24.529Z,6.93
2018-07-26T09:20:52.792Z,6.27
2018-07-26T09:23:21.185Z,6.80
2018-07-26T09:25:49.419Z,6.53
2018-07-26T09:28:17.726Z,6.10
2018-07-26T09:30:46.046Z,6.80
2018-07-26T09:33:14.392Z,6.30
2018-07-26T09:35:42.647Z,6.17
2018-07-26T09:38:11.114Z,6.20
2018-07-26T09:40:39.429Z,5.40
2018-07-26T09:43:07.717Z,6.10
2018-07-26T09:45:35.965Z,6.30
2018-07-26T09:48:04.250Z,5.70
2018-07-26T09:50:32.498Z,6.50
2018-07-26T09:53:00.770Z,5.83
2018-07-26T09:55:29.035Z,6.47
2018-07-26T09:57:57.322Z,6.33
2018-07-26T10:00:31.606Z,6.67
2018-07-26T10:02:59.843Z,6.40
2018-07-26T10:05:28.171Z,6.47
2018-07-26T10:07:56.465Z,6.37
2018-07-26T10:10:24.774Z,6.50
2018-07-26T10:12:52.761Z,5.57
2018-07-26T10:15:21.070Z,5.57
2018-07-26T10:17:50.215Z,6.07
2018-07-26T10:20:19.120Z,7.00
2018-07-26T10:22:47.333Z,5.50
2018-07-26T10:25:15.714Z,5.60
2018-07-26T10:27:44.080Z,5.23
2018-07-26T10:30:13.033Z,5.23
2018-07-26T10:32:41.338Z,5.27
2018-07-26T10:35:09.649Z,5.90
2018-07-26T10:37:37.916Z,5.87
2018-07-26T10:40:06.234Z,5.20
2018-07-26T10:42:34.517Z,5.40
2018-07-26T10:45:02.746Z,5.87
2018-07-26T10:47:31.006Z,5.37
2018-07-26T10:49:59.458Z,5.00
2018-07-26T10:52:28.234Z,5.40
2018-07-26T10:54:56.537Z,5.53
2018-07-26T10:57:24.811Z,6.07
2018-07-26T10:59:53.781Z,6.10
2018-07-26T11:02:21.999Z,6.70
2018-07-26T11:04:50.450Z,4.63
2018-07-26T11:07:18.991Z,5.40
2018-07-26T11:09:47.519Z,5.40
2018-07-26T11:12:15.831Z,8.10
2018-07-26T11:14:44.111Z,4.90
2018-07-26T11:17:12.371Z,5.03
2018-07-26T11:19:40.730Z,5.00
2018-07-26T11:22:09.022Z,6.17
2018-07-26T11:24:37.375Z,5.03
2018-07-26T11:27:05.950Z,5.50
2018-07-26T11:29:34.175Z,5.10
2018-07-26T11:32:02.369Z,5.10
2018-07-26T11:34:30.694Z,6.90
2018-07-26T11:36:58.898Z,5.50
2018-07-26T11:39:27.173Z,4.57
2018-07-26T11:41:56.582Z,4.50
2018-07-26T11:44:24.854Z,4.87
2018-07-26T11:46:53.305Z,4.10
2018-07-26T11:49:21.533Z,4.33
2018-07-26T11:51:49.742Z,3.80
2018-07-26T11:54:18.243Z,4.67
2018-07-26T11:56:46.439Z,4.03
2018-07-26T11:59:15.010Z,4.73
2018-07-26T12:01:43.242Z,4.03
2018-07-26T12:04:11.419Z,4.47
2018-07-26T12:06:39.377Z,3.97
2018-07-26T12:09:09.438Z,3.47
2018-07-26T12:11:38.046Z,3.53
2018-07-26T12:14:06.263Z,4.00
2018-07-26T12:16:34.561Z,3.93
2018-07-26T12:19:03.080Z,4.40
2018-07-26T12:21:31.350Z,3.60
2018-07-26T12:23:59.633Z,3.40
2018-07-26T12:26:27.921Z,4.03
2018-07-26T12:28:56.191Z,4.07
2018-07-26T12:31:24.756Z,4.00
2018-07-26T12:33:53.266Z,3.50
2018-07-26T12:36:22.145Z,3.90
2018-07-26T12:38:50.974Z,3.90
2018-07-26T12:41:19.223Z,3.97
2018-07-26T12:43:47.492Z,4.47
2018-07-26T12:46:15.754Z,3.63
2018-07-26T12:48:43.962Z,4.00
2018-07-26T12:51:12.237Z,5.37
2018-07-26T12:53:40.473Z,4.03
2018-07-26T12:56:09.002Z,6.00
2018-07-26T12:58:37.329Z,4.30
2018-07-26T13:01:05.816Z,3.50
2018-07-26T13:03:34.052Z,4.43
2018-07-26T13:06:02.070Z,4.90
2018-07-26T13:08:30.444Z,4.20
2018-07-26T13:10:58.715Z,5.10
2018-07-26T13:13:27.056Z,4.50
2018-07-26T13:15:55.368Z,5.37
2018-07-26T13:18:23.957Z,4.67
2018-07-26T13:20:52.258Z,5.27
2018-07-26T13:23:21.874Z,4.93
2018-07-26T13:25:50.123Z,4.73
2018-07-26T13:28:19.426Z,5.70
2018-07-26T13:30:47.784Z,5.90
2018-07-26T13:33:16.677Z,5.33
2018-07-26T13:35:44.975Z,4.73
2018-07-26T13:38:13.383Z,4.73
2018-07-26T13:40:41.737Z,4.57
2018-07-26T13:43:09.990Z,4.70
2018-07-26T13:45:38.293Z,4.43
2018-07-26T13:48:06.571Z,4.30
2018-07-26T13:50:34.813Z,4.30
2018-07-26T13:53:03.197Z,5.47
2018-07-26T13:55:31.484Z,5.17
2018-07-26T13:57:59.726Z,4.97
2018-07-26T14:00:27.971Z,5.27
2018-07-26T14:02:56.609Z,4.27
2018-07-26T14:05:25.391Z,4.33
2018-07-26T14:07:53.774Z,4.90
2018-07-26T14:10:22.045Z,4.67
2018-07-26T14:12:50.338Z,4.23
2018-07-26T14:15:18.726Z,4.00
2018-07-26T14:17:47.181Z,4.13
2018-07-26T14:20:15.413Z,3.97
2018-07-26T14:22:43.655Z,4.00
2018-07-26T14:25:12.222Z,3.70
2018-07-26T14:27:40.525Z,3.60
2018-07-26T14:30:09.025Z,4.50
2018-07-26T14:32:37.309Z,3.67
2018-07-26T14:35:06.182Z,3.90
2018-07-26T14:37:34.918Z,3.93
2018-07-26T14:40:03.212Z,4.60
2018-07-26T14:42:31.497Z,4.80
2018-07-26T14:44:59.779Z,3.50
2018-07-26T14:47:28.232Z,3.53
2018-07-26T14:49:56.473Z,5.50
2018-07-26T14:52:24.517Z,5.40
2018-07-26T14:54:52.758Z,5.10
2018-07-26T14:57:21.444Z,4.47
2018-07-26T14:59:49.685Z,4.47
2018-07-26T15:02:17.955Z,4.40
2018-07-26T15:04:47.158Z,4.70
2018-07-26T15:07:15.438Z,3.70
2018-07-26T15:09:43.524Z,5.40
2018-07-26T15:12:11.787Z,12.43
2018-07-26T15:14:40.026Z,5.57
2018-07-26T15:17:08.358Z,4.67
2018-07-26T15:19:36.656Z,4.20
2018-07-26T15:22:05.014Z,4.30
2018-07-26T15:24:34.373Z,4.00
2018-07-26T15:27:02.657Z,4.40
2018-07-26T15:29:30.914Z,3.70
2018-07-26T15:31:59.305Z,3.80
2018-07-26T15:34:28.063Z,4.20
2018-07-26T15:36:56.329Z,5.47
2018-07-26T15:39:24.629Z,4.90
2018-07-26T15:41:53.078Z,3.30
2018-07-26T15:44:21.361Z,3.97
2018-07-26T15:46:50.274Z,4.63
2018-07-26T15:49:18.567Z,3.60
2018-07-26T15:51:46.869Z,4.10
2018-07-26T15:54:15.074Z,4.70
2018-07-26T15:56:43.287Z,4.70
2018-07-26T15:59:11.560Z,5.07
2018-07-26T16:01:39.910Z,3.47
2018-07-26T16:04:08.167Z,3.40
2018-07-26T16:06:36.666Z,4.30
2018-07-26T16:09:07.996Z,3.57
2018-07-26T16:11:36.710Z,4.47
2018-07-26T16:14:05.047Z,4.90
2018-07-26T16:16:33.435Z,4.00
2018-07-26T16:19:02.242Z,4.40
2018-07-26T16:21:30.486Z,5.50
2018-07-26T16:23:58.781Z,4.67
2018-07-26T16:26:27.048Z,3.77
2018-07-26T16:28:55.558Z,4.00
2018-07-26T16:31:23.869Z,3.90
2018-07-26T16:33:52.127Z,3.27
2018-07-26T16:36:20.529Z,4.00
2018-07-26T16:38:49.064Z,3.90
2018-07-26T16:41:17.337Z,4.47
2018-07-26T16:43:45.569Z,4.80
2018-07-26T16:46:13.837Z,4.30
2018-07-26T16:48:42.255Z,4.47
2018-07-26T16:51:10.545Z,4.57
2018-07-26T16:53:38.802Z,4.10
2018-07-26T16:56:07.025Z,4.33
2018-07-26T16:58:35.504Z,4.80
2018-07-26T17:01:03.957Z,4.90
2018-07-26T17:03:32.194Z,5.00
2018-07-26T17:06:00.251Z,4.30
2018-07-26T17:08:28.580Z,4.83
2018-07-26T17:10:56.825Z,5.33
2018-07-26T17:13:25.279Z,5.10
2018-07-26T17:15:53.517Z,5.10
2018-07-26T17:18:21.783Z,4.70
2018-07-26T17:20:50.170Z,5.77
2018-07-26T17:23:18.838Z,5.83
2018-07-26T17:25:47.150Z,5.30
2018-07-26T17:28:15.337Z,5.47
2018-07-26T17:30:43.630Z,6.00
2018-07-26T17:33:11.850Z,5.17
2018-07-26T17:35:40.070Z,6.30
2018-07-26T17:38:08.358Z,5.57
2018-07-26T17:40:36.889Z,5.40
2018-07-26T17:43:05.113Z,5.60
2018-07-26T17:45:33.381Z,5.03
2018-07-26T17:48:01.589Z,5.20
2018-07-26T17:50:29.898Z,5.30
2018-07-26T17:52:58.154Z,5.60
2018-07-26T17:55:26.524Z,6.80
2018-07-26T17:57:54.798Z,5.30
2018-07-26T18:00:23.042Z,6.40
2018-07-26T18:02:51.311Z,6.10
2018-07-26T18:05:19.567Z,5.17
2018-07-26T18:07:47.861Z,6.00
2018-07-26T18:10:16.102Z,4.90
2018-07-26T18:12:44.376Z,4.97
2018-07-26T18:15:12.677Z,5.37
2018-07-26T18:17:41.024Z,5.60
2018-07-26T18:20:09.256Z,5.27
2018-07-26T18:22:37.509Z,6.50
2018-07-26T18:25:05.791Z,6.87
2018-07-26T18:27:34.117Z,5.20
2018-07-26T18:30:02.331Z,5.93
2018-07-26T18:32:31.173Z,5.63
2018-07-26T18:34:59.453Z,5.20
2018-07-26T18:37:27.857Z,6.50
2018-07-26T18:39:56.058Z,5.93
2018-07-26T18:42:24.299Z,5.23
2018-07-26T18:44:52.503Z,6.00
2018-07-26T18:47:20.759Z,5.40
2018-07-26T18:49:49.041Z,5.97
2018-07-26T18:52:17.366Z,5.97
2018-07-26T18:54:45.637Z,5.90
2018-07-26T18:57:13.961Z,5.07
2018-07-26T18:59:42.141Z,5.10
2018-07-26T19:02:10.389Z,6.63
2018-07-26T19:04:38.673Z,5.87
2018-07-26T19:07:07.065Z,6.27
2018-07-26T19:09:36.173Z,6.97
2018-07-26T19:12:04.539Z,10.43
2018-07-26T19:14:32.720Z,6.17
2018-07-26T19:17:01.017Z,5.80
2018-07-26T19:19:29.245Z,6.27
2018-07-26T19:21:57.488Z,6.10
2018-07-26T19:24:25.877Z,6.37
2018-07-26T19:26:54.127Z,6.30
2018-07-26T19:29:22.574Z,6.70
2018-07-26T19:31:50.773Z,6.90
2018-07-26T19:34:19.054Z,7.20
2018-07-26T19:36:47.278Z,6.70
2018-07-26T19:39:15.477Z,5.93
2018-07-26T19:41:43.693Z,6.13
2018-07-26T19:44:11.985Z,6.83
2018-07-26T19:46:40.176Z,7.17
2018-07-26T19:49:08.425Z,6.53
2018-07-26T19:51:36.653Z,6.80
2018-07-26T19:54:04.914Z,6.77
2018-07-26T19:56:33.234Z,6.53
2018-07-26T19:59:01.441Z,7.20
2018-07-26T20:01:29.663Z,6.93
2018-07-26T20:03:57.846Z,7.53
2018-07-26T20:06:26.081Z,5.93
2018-07-26T20:08:54.292Z,6.60
2018-07-26T20:18:06.951Z,7.77
2018-07-26T20:20:35.214Z,7.70
2018-07-26T20:23:03.622Z,8.37
2018-07-26T20:25:31.856Z,7.47
2018-07-26T20:28:00.117Z,8.20
2018-07-26T20:30:28.314Z,7.40
2018-07-26T20:32:57.052Z,8.43
2018-07-26T20:35:25.232Z,8.97
2018-07-26T20:37:54.121Z,7.70
2018-07-26T20:40:22.181Z,7.50
2018-07-26T20:42:51.364Z,7.17
2018-07-26T20:45:19.574Z,8.20
2018-07-26T20:47:47.683Z,6.97
2018-07-26T20:50:15.881Z,9.00
2018-07-26T20:52:44.085Z,7.80
2018-07-26T20:55:12.040Z,7.67
2018-07-26T20:57:40.274Z,7.83
2018-07-26T21:00:10.348Z,8.00
2018-07-26T21:02:38.580Z,8.03
2018-07-26T21:05:06.850Z,8.83
2018-07-26T21:07:35.046Z,8.87
2018-07-26T21:10:03.273Z,9.90
2018-07-26T21:12:31.470Z,9.63
2018-07-26T21:14:59.686Z,9.27
2018-07-26T21:17:28.120Z,9.90
2018-07-26T21:19:56.306Z,8.53
2018-07-26T21:29:08.539Z,9.07
2018-07-26T21:31:36.759Z,9.97
2018-07-26T21:34:04.956Z,8.70
2018-07-26T21:36:33.169Z,10.23
2018-07-26T21:39:01.362Z,9.40
2018-07-26T21:41:29.562Z,9.33
2018-07-26T21:43:57.766Z,9.10
2018-07-26T21:46:26.092Z,8.90
2018-07-26T21:48:54.318Z,8.73
2018-07-26T21:51:22.619Z,8.53
2018-07-26T21:53:50.815Z,9.03
2018-07-26T21:56:19.011Z,8.40
2018-07-26T21:58:47.225Z,9.80
2018-07-26T22:01:15.514Z,10.03
2018-07-26T22:03:43.713Z,9.00
2018-07-26T22:06:11.964Z,8.70
2018-07-26T22:08:40.300Z,8.60
2018-07-26T22:11:08.465Z,9.83
2018-07-26T22:13:36.696Z,8.30
2018-07-26T22:16:04.926Z,8.50
2018-07-26T22:18:33.176Z,9.13
2018-07-26T22:21:01.367Z,9.30
2018-07-26T22:23:29.623Z,8.33
2018-07-26T22:25:57.824Z,8.10
2018-07-26T22:28:26.038Z,7.20
2018-07-26T22:30:54.524Z,8.30
2018-07-26T22:33:22.714Z,7.43
2018-07-26T22:35:50.913Z,7.97
2018-07-26T22:38:19.157Z,7.40
2018-07-26T22:40:47.626Z,8.90
2018-07-26T22:43:15.837Z,8.40
2018-07-26T22:45:44.113Z,10.67
2018-07-26T22:48:12.374Z,7.27
2018-07-26T22:50:40.638Z,8.03
2018-07-26T22:53:08.927Z,7.97
2018-07-26T22:55:37.146Z,6.90
2018-07-26T22:58:05.386Z,7.63
2018-07-26T23:00:33.632Z,8.33
2018-07-26T23:03:01.830Z,8.80
2018-07-26T23:05:30.030Z,8.27
2018-07-26T23:07:58.254Z,8.17
2018-07-26T23:10:26.473Z,7.23
2018-07-26T23:12:54.682Z,8.00
2018-07-26T23:15:22.959Z,7.37
2018-07-26T23:17:51.362Z,8.00
2018-07-26T23:20:19.718Z,7.90
2018-07-26T23:22:51.906Z,7.57
2018-07-26T23:25:20.370Z,7.50
2018-07-26T23:27:48.606Z,8.23
2018-07-26T23:30:16.836Z,8.40
2018-07-26T23:32:45.309Z,9.03
2018-07-26T23:35:13.507Z,9.23
2018-07-26T23:37:41.809Z,8.70
2018-07-26T23:40:11.017Z,9.43
2018-07-26T23:42:39.710Z,8.27
2018-07-26T23:45:07.927Z,8.73
2018-07-26T23:47:36.187Z,8.67
2018-07-26T23:50:05.046Z,9.30
2018-07-26T23:52:33.302Z,9.20
2018-07-26T23:55:01.514Z,9.30
2018-07-26T23:57:29.825Z,9.10
2018-07-26T23:59:58.213Z,8.70
